createdAt,value
2022-09-25T00:00:34.433Z,18.80
2022-09-25T00:03:20.503Z,19.60
2022-09-25T00:06:13.385Z,19.00
2022-09-25T00:09:00.266Z,20.97
2022-09-25T00:11:46.704Z,21.80
2022-09-25T00:14:32.575Z,20.63
2022-09-25T00:17:18.770Z,21.93
2022-09-25T00:20:04.734Z,22.50
2022-09-25T00:22:51.382Z,22.13
2022-09-25T00:25:37.464Z,23.33
2022-09-25T00:28:23.181Z,22.50
2022-09-25T00:31:12.768Z,22.27
2022-09-25T00:34:00.170Z,22.40
2022-09-25T00:36:46.218Z,22.60
2022-09-25T00:39:33.063Z,22.07
2022-09-25T00:42:20.878Z,22.80
2022-09-25T00:45:07.473Z,23.93
2022-09-25T00:48:01.624Z,22.37
2022-09-25T00:50:53.117Z,22.63
2022-09-25T00:53:41.032Z,21.00
2022-09-25T00:56:28.948Z,22.27
2022-09-25T00:59:17.675Z,23.10
2022-09-25T01:02:03.390Z,21.10
2022-09-25T01:04:49.812Z,22.00
2022-09-25T01:07:38.016Z,21.90
2022-09-25T01:10:24.772Z,21.00
2022-09-25T01:13:12.260Z,21.37
2022-09-25T01:16:09.281Z,18.50
2022-09-25T01:19:13.830Z,20.33
2022-09-25T01:22:19.327Z,17.43
2022-09-25T01:25:25.881Z,17.77
2022-09-25T01:28:31.314Z,16.20
2022-09-25T01:31:20.334Z,16.90
2022-09-25T01:34:14.770Z,16.70
2022-09-25T01:37:05.801Z,17.90
2022-09-25T01:39:58.629Z,18.40
2022-09-25T01:43:08.195Z,17.40
2022-09-25T01:46:01.362Z,17.90
2022-09-25T01:48:49.619Z,17.10
2022-09-25T01:51:41.672Z,16.60
2022-09-25T01:54:27.606Z,18.43
2022-09-25T01:57:32.416Z,18.60
2022-09-25T02:00:23.078Z,17.10
2022-09-25T02:03:11.515Z,17.70
2022-09-25T02:06:05.087Z,16.80
2022-09-25T02:08:54.099Z,19.17
2022-09-25T02:11:42.764Z,18.87
2022-09-25T02:14:33.270Z,18.80
2022-09-25T02:17:42.483Z,18.97
2022-09-25T02:20:34.471Z,18.83
2022-09-25T02:23:27.021Z,20.23
2022-09-25T02:26:17.348Z,20.00
2022-09-25T02:29:03.304Z,19.80
2022-09-25T02:31:51.237Z,20.83
2022-09-25T02:34:37.203Z,19.93
2022-09-25T02:37:23.052Z,19.10
2022-09-25T02:40:11.518Z,21.30
2022-09-25T02:43:02.340Z,23.00
2022-09-25T02:45:55.507Z,23.73
2022-09-25T02:48:50.554Z,23.10
2022-09-25T02:51:42.137Z,24.30
2022-09-25T02:54:32.123Z,24.00
2022-09-25T02:57:26.993Z,26.10
2022-09-25T03:00:13.303Z,25.67
2022-09-25T03:03:00.080Z,26.30
2022-09-25T03:05:47.306Z,26.37
2022-09-25T03:08:37.683Z,25.23
2022-09-25T03:11:26.745Z,24.80
2022-09-25T03:14:12.503Z,25.17
2022-09-25T03:17:00.505Z,27.67
2022-09-25T03:19:46.503Z,26.80
2022-09-25T03:22:34.556Z,25.47
2022-09-25T03:25:22.340Z,24.97
2022-09-25T03:28:10.632Z,25.03
2022-09-25T03:30:58.221Z,26.13
2022-09-25T03:33:46.889Z,25.03
2022-09-25T03:36:34.854Z,24.33
2022-09-25T03:39:21.108Z,27.33
2022-09-25T03:42:06.750Z,25.67
2022-09-25T03:44:52.799Z,27.27
2022-09-25T03:47:38.334Z,26.00
2022-09-25T03:50:24.179Z,26.43
2022-09-25T03:53:10.403Z,25.77
2022-09-25T03:55:56.432Z,25.47
2022-09-25T03:58:42.257Z,25.03
2022-09-25T04:01:28.843Z,24.60
2022-09-25T04:04:14.528Z,24.10
2022-09-25T04:07:00.606Z,21.73
2022-09-25T04:09:46.079Z,23.17
2022-09-25T04:12:34.345Z,21.80
2022-09-25T04:15:20.281Z,21.80
2022-09-25T04:18:06.402Z,20.50
2022-09-25T04:20:52.235Z,21.40
2022-09-25T04:23:38.760Z,21.77
2022-09-25T04:26:27.699Z,20.63
2022-09-25T04:29:15.207Z,20.67
2022-09-25T04:32:19.468Z,20.90
2022-09-25T04:35:05.833Z,22.90
2022-09-25T04:37:51.289Z,21.03
2022-09-25T04:40:37.534Z,18.30
2022-09-25T04:43:23.795Z,18.90
2022-09-25T04:46:12.439Z,19.50
2022-09-25T04:48:59.857Z,19.17
2022-09-25T04:51:45.788Z,19.10
2022-09-25T04:54:31.920Z,18.90
2022-09-25T04:57:38.904Z,19.37
2022-09-25T05:00:24.285Z,18.33
2022-09-25T05:03:10.228Z,19.13
2022-09-25T05:05:56.329Z,16.63
2022-09-25T05:08:43.072Z,16.47
2022-09-25T05:11:28.859Z,18.03
2022-09-25T05:14:14.702Z,15.70
2022-09-25T05:17:01.207Z,15.57
2022-09-25T05:19:47.006Z,17.03
2022-09-25T05:22:32.947Z,16.50
2022-09-25T05:25:19.943Z,15.33
2022-09-25T05:28:05.741Z,17.07
2022-09-25T05:30:51.689Z,17.33
2022-09-25T05:33:37.466Z,16.60
2022-09-25T05:36:23.353Z,16.37
2022-09-25T05:39:14.588Z,17.33
2022-09-25T05:42:02.051Z,15.73
2022-09-25T05:44:48.538Z,17.00
2022-09-25T05:47:34.016Z,17.17
2022-09-25T05:50:22.129Z,16.47
2022-09-25T05:53:07.900Z,17.53
2022-09-25T05:56:00.653Z,17.70
2022-09-25T05:58:47.203Z,15.90
2022-09-25T06:01:33.229Z,16.60
2022-09-25T06:04:18.707Z,16.93
2022-09-25T06:07:05.595Z,17.77
2022-09-25T06:09:51.441Z,19.30
2022-09-25T06:12:37.134Z,17.20
2022-09-25T06:15:23.987Z,17.50
2022-09-25T06:18:09.755Z,17.30
2022-09-25T06:21:00.383Z,18.10
2022-09-25T06:23:46.717Z,17.70
2022-09-25T06:26:34.036Z,18.40
2022-09-25T06:29:20.255Z,18.87
2022-09-25T06:32:06.141Z,19.87
2022-09-25T06:34:51.779Z,19.70
2022-09-25T06:37:37.453Z,18.40
2022-09-25T06:40:23.091Z,20.50
2022-09-25T06:43:13.207Z,19.47
2022-09-25T06:46:02.983Z,19.37
2022-09-25T06:48:55.680Z,19.80
2022-09-25T06:51:41.248Z,19.53
2022-09-25T06:54:30.351Z,19.17
2022-09-25T06:57:16.176Z,20.07
2022-09-25T07:00:02.113Z,20.50
2022-09-25T07:03:06.102Z,18.60
2022-09-25T07:05:51.866Z,20.13
2022-09-25T07:08:38.491Z,20.97
2022-09-25T07:11:28.185Z,20.67
2022-09-25T07:14:15.215Z,19.10
2022-09-25T07:17:00.775Z,21.47
2022-09-25T07:19:46.553Z,21.10
2022-09-25T07:22:32.454Z,21.00
2022-09-25T07:25:18.088Z,21.37
2022-09-25T07:28:03.759Z,21.50
2022-09-25T07:30:50.662Z,22.13
2022-09-25T07:33:36.573Z,21.50
2022-09-25T07:36:22.589Z,21.63
2022-09-25T07:39:08.504Z,21.07
2022-09-25T07:41:57.377Z,21.00
2022-09-25T07:44:48.190Z,22.97
2022-09-25T07:47:34.673Z,21.03
2022-09-25T07:50:20.506Z,22.43
2022-09-25T07:53:06.046Z,20.40
2022-09-25T07:55:51.865Z,21.30
2022-09-25T07:58:37.506Z,21.30
2022-09-25T08:01:23.481Z,21.37
2022-09-25T08:04:09.500Z,20.97
2022-09-25T08:06:55.396Z,18.73
2022-09-25T08:09:41.206Z,19.07
2022-09-25T08:12:26.708Z,21.20
2022-09-25T08:15:14.556Z,21.97
2022-09-25T08:18:00.176Z,21.70
2022-09-25T08:20:45.709Z,21.03
2022-09-25T08:23:31.891Z,22.03
2022-09-25T08:26:19.154Z,23.23
2022-09-25T08:29:05.636Z,20.60
2022-09-25T08:31:51.696Z,18.83
2022-09-25T08:34:41.790Z,22.43
2022-09-25T08:37:27.614Z,21.23
2022-09-25T08:40:17.991Z,21.07
2022-09-25T08:43:03.841Z,21.30
2022-09-25T08:46:09.220Z,20.73
2022-09-25T08:49:10.048Z,19.93
2022-09-25T08:51:59.771Z,20.37
2022-09-25T08:54:46.015Z,21.73
2022-09-25T08:57:40.716Z,19.00
2022-09-25T09:00:26.412Z,19.93
2022-09-25T09:03:12.699Z,18.70
2022-09-25T09:06:01.975Z,19.73
2022-09-25T09:08:51.165Z,21.57
2022-09-25T09:11:39.645Z,19.70
2022-09-25T09:14:27.011Z,20.70
2022-09-25T09:17:38.779Z,19.50
2022-09-25T09:20:28.522Z,21.10
2022-09-25T09:23:16.196Z,18.77
2022-09-25T09:26:16.863Z,19.27
2022-09-25T09:29:02.766Z,20.37
2022-09-25T09:32:01.070Z,20.20
2022-09-25T09:35:07.451Z,19.37
2022-09-25T09:37:56.584Z,21.90
2022-09-25T09:41:01.436Z,20.83
2022-09-25T09:44:07.634Z,21.63
2022-09-25T09:46:59.125Z,22.73
2022-09-25T09:49:52.114Z,21.10
2022-09-25T09:52:39.194Z,20.40
2022-09-25T09:55:36.065Z,20.90
2022-09-25T09:58:24.391Z,19.57
2022-09-25T10:01:36.657Z,21.70
2022-09-25T10:04:18.565Z,19.47
2022-09-25T10:07:10.373Z,20.20
2022-09-25T10:09:56.953Z,19.10
2022-09-25T10:12:52.783Z,18.90
2022-09-25T10:15:47.141Z,17.83
2022-09-25T10:18:45.996Z,20.97
2022-09-25T10:21:34.653Z,18.90
2022-09-25T10:24:41.036Z,18.20
2022-09-25T10:27:31.364Z,18.07
2022-09-25T10:30:19.151Z,17.43
2022-09-25T10:33:13.168Z,17.70
2022-09-25T10:35:59.309Z,17.17
2022-09-25T10:38:48.244Z,17.70
2022-09-25T10:41:41.787Z,16.77
2022-09-25T10:44:35.285Z,18.07
2022-09-25T10:47:39.379Z,17.60
2022-09-25T10:50:26.992Z,19.60
2022-09-25T10:53:28.864Z,17.00
2022-09-25T10:56:16.706Z,17.23
2022-09-25T10:59:03.831Z,17.70
2022-09-25T11:01:52.138Z,17.53
2022-09-25T11:04:38.846Z,13.60
2022-09-25T11:07:27.703Z,14.00
2022-09-25T11:10:23.105Z,14.33
2022-09-25T11:13:10.210Z,12.97
2022-09-25T11:16:02.634Z,12.77
2022-09-25T11:18:52.160Z,13.40
2022-09-25T11:21:49.242Z,11.77
2022-09-25T11:24:57.304Z,9.73
2022-09-25T11:27:50.646Z,9.50
2022-09-25T11:30:59.496Z,9.60
2022-09-25T11:33:51.145Z,8.60
2022-09-25T11:36:46.553Z,9.57
2022-09-25T11:40:09.081Z,10.00
2022-09-25T11:43:04.736Z,7.67
2022-09-25T11:46:02.472Z,8.70
2022-09-25T11:48:56.412Z,7.30
2022-09-25T11:51:48.456Z,7.43
2022-09-25T11:54:53.105Z,7.50
2022-09-25T11:57:44.911Z,8.00
2022-09-25T12:00:41.332Z,5.90
2022-09-25T12:03:46.485Z,6.73
2022-09-25T12:06:55.029Z,5.27
2022-09-25T12:09:46.567Z,6.27
2022-09-25T12:12:47.631Z,6.70
2022-09-25T12:15:45.854Z,6.30
2022-09-25T12:18:48.337Z,6.43
2022-09-25T12:21:36.962Z,6.23
2022-09-25T12:24:33.181Z,6.10
2022-09-25T12:27:18.955Z,6.60
2022-09-25T12:30:08.564Z,5.70
2022-09-25T12:32:59.363Z,5.30
2022-09-25T12:36:08.878Z,4.63
2022-09-25T12:39:01.431Z,5.53
2022-09-25T12:41:54.175Z,4.97
2022-09-25T12:44:44.021Z,4.93
2022-09-25T12:47:33.282Z,4.90
2022-09-25T12:50:29.938Z,5.10
2022-09-25T12:53:15.756Z,5.50
2022-09-25T12:56:13.300Z,5.30
2022-09-25T12:58:59.353Z,4.90
2022-09-25T13:01:59.679Z,4.77
2022-09-25T13:04:55.471Z,4.50
2022-09-25T13:07:53.820Z,6.40
2022-09-25T13:10:41.941Z,4.73
2022-09-25T13:13:33.944Z,5.80
2022-09-25T13:16:21.970Z,6.20
2022-09-25T13:19:12.255Z,5.33
2022-09-25T13:22:03.758Z,7.43
2022-09-25T13:24:52.313Z,6.00
2022-09-25T13:27:42.694Z,4.90
2022-09-25T13:30:29.341Z,5.43
2022-09-25T13:33:21.143Z,5.50
2022-09-25T13:36:08.961Z,6.00
2022-09-25T13:39:18.179Z,5.50
2022-09-25T13:42:13.229Z,5.37
2022-09-25T13:45:09.065Z,5.27
2022-09-25T13:47:56.390Z,5.63
2022-09-25T13:50:42.687Z,6.90
2022-09-25T13:53:35.024Z,6.07
2022-09-25T13:56:23.335Z,5.13
2022-09-25T13:59:17.760Z,6.77
2022-09-25T14:02:24.500Z,6.53
2022-09-25T14:05:14.019Z,7.17
2022-09-25T14:08:02.169Z,6.37
2022-09-25T14:10:51.074Z,6.87
2022-09-25T14:13:37.236Z,9.77
2022-09-25T14:16:29.542Z,5.63
2022-09-25T14:19:21.109Z,6.27
2022-09-25T14:22:07.059Z,5.80
2022-09-25T14:24:53.226Z,5.93
2022-09-25T14:27:39.008Z,4.97
2022-09-25T14:30:28.952Z,6.57
2022-09-25T14:33:18.218Z,6.17
2022-09-25T14:36:11.361Z,5.73
2022-09-25T14:39:07.413Z,5.70
2022-09-25T14:41:56.653Z,4.47
2022-09-25T14:45:04.526Z,5.17
2022-09-25T14:47:51.651Z,5.30
2022-09-25T14:50:39.105Z,5.60
2022-09-25T14:53:33.284Z,4.83
2022-09-25T14:56:19.973Z,4.80
2022-09-25T14:59:12.015Z,4.50
2022-09-25T15:01:59.457Z,4.87
2022-09-25T15:04:47.399Z,5.73
2022-09-25T15:07:32.957Z,4.10
2022-09-25T15:10:27.613Z,4.63
2022-09-25T15:13:13.360Z,4.13
2022-09-25T15:16:18.477Z,4.20
2022-09-25T15:19:09.669Z,4.10
2022-09-25T15:21:55.777Z,4.10
2022-09-25T15:24:46.134Z,3.63
2022-09-25T15:27:34.523Z,4.60
2022-09-25T15:30:20.525Z,6.57
2022-09-25T15:33:06.776Z,5.30
2022-09-25T15:35:55.473Z,4.00
2022-09-25T15:38:41.378Z,3.70
2022-09-25T15:41:27.844Z,4.10
2022-09-25T15:44:14.099Z,3.73
2022-09-25T15:47:02.152Z,4.00
2022-09-25T15:49:49.032Z,4.43
2022-09-25T15:52:34.571Z,5.00
2022-09-25T15:55:21.914Z,4.20
2022-09-25T15:58:08.812Z,3.93
2022-09-25T16:01:15.108Z,5.07
2022-09-25T16:04:20.155Z,4.17
2022-09-25T16:07:25.333Z,4.33
2022-09-25T16:10:11.953Z,4.90
2022-09-25T16:12:57.723Z,4.00
2022-09-25T16:15:50.242Z,5.00
2022-09-25T16:18:42.321Z,4.03
2022-09-25T16:21:31.595Z,3.67
2022-09-25T16:24:21.390Z,4.20
2022-09-25T16:27:08.507Z,5.10
2022-09-25T16:29:56.913Z,4.80
2022-09-25T16:32:47.437Z,3.90
2022-09-25T16:35:50.567Z,4.90
2022-09-25T16:38:39.005Z,3.60
2022-09-25T16:41:27.346Z,3.90
2022-09-25T16:44:29.143Z,4.47
2022-09-25T16:47:21.660Z,3.97
2022-09-25T16:50:07.476Z,4.20
2022-09-25T16:52:53.677Z,4.87
2022-09-25T16:55:53.153Z,3.93
2022-09-25T16:58:39.012Z,5.00
2022-09-25T17:01:28.121Z,4.33
2022-09-25T17:04:15.726Z,4.40
2022-09-25T17:07:01.867Z,5.37
2022-09-25T17:09:47.704Z,4.40
2022-09-25T17:12:33.974Z,5.10
2022-09-25T17:15:23.606Z,8.13
2022-09-25T17:18:17.221Z,6.00
2022-09-25T17:21:10.933Z,6.90
2022-09-25T17:23:56.507Z,8.20
2022-09-25T17:26:43.558Z,5.50
2022-09-25T17:29:29.427Z,7.93
2022-09-25T17:32:17.763Z,6.30
2022-09-25T17:35:03.504Z,7.20
2022-09-25T17:37:50.722Z,7.90
2022-09-25T17:40:36.545Z,6.00
2022-09-25T17:43:23.514Z,5.80
2022-09-25T17:46:09.924Z,5.30
2022-09-25T17:48:57.464Z,6.20
2022-09-25T17:51:45.275Z,6.80
2022-09-25T17:54:31.489Z,6.30
2022-09-25T17:57:17.023Z,5.63
2022-09-25T18:00:02.854Z,5.53
2022-09-25T18:02:50.657Z,5.30
2022-09-25T18:05:36.686Z,5.53
2022-09-25T18:08:22.705Z,5.20
2022-09-25T18:11:10.365Z,5.07
2022-09-25T18:14:00.847Z,4.90
2022-09-25T18:16:46.865Z,6.30
2022-09-25T18:19:51.566Z,5.80
2022-09-25T18:22:38.401Z,5.87
2022-09-25T18:25:24.158Z,6.50
2022-09-25T18:28:10.688Z,5.80
2022-09-25T18:30:57.872Z,5.10
2022-09-25T18:33:47.374Z,5.80
2022-09-25T18:36:33.284Z,4.97
2022-09-25T18:39:20.622Z,6.83
2022-09-25T18:42:06.528Z,6.30
2022-09-25T18:44:52.798Z,6.07
2022-09-25T18:47:40.145Z,6.30
2022-09-25T18:50:26.745Z,5.87
2022-09-25T18:53:12.568Z,7.17
2022-09-25T18:55:58.282Z,6.47
2022-09-25T18:58:43.904Z,5.30
2022-09-25T19:01:29.663Z,5.33
2022-09-25T19:04:16.848Z,6.00
2022-09-25T19:07:03.707Z,5.80
2022-09-25T19:09:49.382Z,5.60
2022-09-25T19:12:34.909Z,6.33
2022-09-25T19:15:21.015Z,7.47
2022-09-25T19:18:07.029Z,6.40
2022-09-25T19:20:54.417Z,6.53
2022-09-25T19:23:40.490Z,8.13
2022-09-25T19:26:27.092Z,6.40
2022-09-25T19:29:13.508Z,6.20
2022-09-25T19:31:59.405Z,5.33
2022-09-25T19:34:46.185Z,6.80
2022-09-25T19:37:32.839Z,5.23
2022-09-25T19:40:36.534Z,6.10
2022-09-25T19:43:23.941Z,6.03
2022-09-25T19:46:10.404Z,7.90
2022-09-25T19:48:57.665Z,5.60
2022-09-25T19:51:43.733Z,4.93
2022-09-25T19:54:31.327Z,6.00
2022-09-25T19:57:17.833Z,6.47
2022-09-25T20:00:04.549Z,5.23
2022-09-25T20:02:54.797Z,6.03
2022-09-25T20:05:41.668Z,5.83
2022-09-25T20:08:27.383Z,6.40
2022-09-25T20:11:18.450Z,6.13
2022-09-25T20:14:05.294Z,6.40
2022-09-25T20:16:50.820Z,5.80
2022-09-25T20:19:37.834Z,6.90
2022-09-25T20:22:23.730Z,7.43
2022-09-25T20:25:10.737Z,6.07
2022-09-25T20:27:57.478Z,6.50
2022-09-25T20:30:44.453Z,6.40
2022-09-25T20:33:34.571Z,6.63
2022-09-25T20:36:20.804Z,8.40
2022-09-25T20:39:06.608Z,6.67
2022-09-25T20:41:53.523Z,6.30
2022-09-25T20:44:39.554Z,6.30
2022-09-25T20:47:29.267Z,7.03
2022-09-25T20:50:15.522Z,6.90
2022-09-25T20:53:01.205Z,6.60
2022-09-25T20:55:47.535Z,6.27
2022-09-25T20:58:33.891Z,6.47
2022-09-25T21:01:21.542Z,6.30
2022-09-25T21:04:08.621Z,6.40
2022-09-25T21:06:54.332Z,6.97
2022-09-25T21:09:41.455Z,7.47
2022-09-25T21:12:28.370Z,6.20
2022-09-25T21:15:14.005Z,7.33
2022-09-25T21:18:00.578Z,7.10
2022-09-25T21:20:46.110Z,6.60
2022-09-25T21:23:31.700Z,8.20
2022-09-25T21:26:18.355Z,7.90
2022-09-25T21:29:05.280Z,7.30
2022-09-25T21:31:51.178Z,7.47
2022-09-25T21:34:37.112Z,8.03
2022-09-25T21:37:22.936Z,6.90
2022-09-25T21:40:09.063Z,6.70
2022-09-25T21:42:55.556Z,7.40
2022-09-25T21:45:41.718Z,7.43
2022-09-25T21:48:28.017Z,7.10
2022-09-25T21:51:14.104Z,7.93
2022-09-25T21:54:00.964Z,7.73
2022-09-25T21:56:48.965Z,7.57
2022-09-25T21:59:34.692Z,7.87
2022-09-25T22:02:20.302Z,7.20
2022-09-25T22:05:06.088Z,7.17
2022-09-25T22:07:52.017Z,8.03
2022-09-25T22:10:37.838Z,8.40
2022-09-25T22:13:23.972Z,8.07
2022-09-25T22:16:11.586Z,7.90
2022-09-25T22:18:59.142Z,8.47
2022-09-25T22:21:46.035Z,9.03
2022-09-25T22:24:32.306Z,7.70
2022-09-25T22:27:18.159Z,8.53
2022-09-25T22:30:04.169Z,8.93
2022-09-25T22:32:51.438Z,8.33
2022-09-25T22:35:37.228Z,9.27
2022-09-25T22:38:24.170Z,8.40
2022-09-25T22:41:11.999Z,8.50
2022-09-25T22:44:00.612Z,9.83
2022-09-25T22:46:47.379Z,9.73
2022-09-25T22:49:33.598Z,9.40
2022-09-25T22:52:19.542Z,8.60
2022-09-25T22:55:05.807Z,9.33
2022-09-25T22:57:51.386Z,8.90
2022-09-25T23:00:37.225Z,9.70
2022-09-25T23:03:24.818Z,7.77
2022-09-25T23:06:11.482Z,9.90
2022-09-25T23:08:58.728Z,8.73
2022-09-25T23:11:45.194Z,9.60
2022-09-25T23:14:32.093Z,9.03
2022-09-25T23:17:18.464Z,9.43
2022-09-25T23:20:05.157Z,9.73
2022-09-25T23:22:51.273Z,8.93
2022-09-25T23:25:37.075Z,9.10
2022-09-25T23:28:23.154Z,10.50
2022-09-25T23:31:10.346Z,8.43
2022-09-25T23:33:56.583Z,9.10
2022-09-25T23:36:42.504Z,9.00
2022-09-25T23:39:28.332Z,8.57
2022-09-25T23:42:14.885Z,8.53
2022-09-25T23:45:00.878Z,8.50
2022-09-25T23:47:48.494Z,8.83
2022-09-25T23:50:34.769Z,8.67
2022-09-25T23:53:20.903Z,9.50
2022-09-25T23:56:14.387Z,8.87
2022-09-25T23:59:03.594Z,9.23
